sensor_id;sensor_type;location;lat;lon;timestamp;pressure;altitude;pressure_sealevel;temperature;humidity
62025;BME280;47978;49.118;12.146;2023-02-15T00:00:42;99016.03;;;0.04;92.43
62025;BME280;47978;49.118;12.146;2023-02-15T00:04:43;99017.66;;;-0.02;91.66
62025;BME280;47978;49.118;12.146;2023-02-15T00:08:46;99014.06;;;-0.09;92.18
62025;BME280;47978;49.118;12.146;2023-02-15T00:12:47;99008.59;;;-0.16;92.01
62025;BME280;47978;49.118;12.146;2023-02-15T00:16:49;99011.34;;;-0.09;91.96
62025;BME280;47978;49.118;12.146;2023-02-15T00:20:51;99008.59;;;-0.16;91.64
62025;BME280;47978;49.118;12.146;2023-02-15T00:24:54;99007.91;;;0.10;90.18
62025;BME280;47978;49.118;12.146;2023-02-15T00:28:56;99006.13;;;-0.11;91.34
62025;BME280;47978;49.118;12.146;2023-02-15T00:32:57;99005.72;;;-0.08;91.23
62025;BME280;47978;49.118;12.146;2023-02-15T00:36:59;99004.38;;;0.16;90.53
62025;BME280;47978;49.118;12.146;2023-02-15T00:41:02;99002.28;;;0.18;89.66
62025;BME280;47978;49.118;12.146;2023-02-15T00:45:04;99001.31;;;-0.09;91.29
62025;BME280;47978;49.118;12.146;2023-02-15T00:49:06;99000.19;;;-0.21;92.15
62025;BME280;47978;49.118;12.146;2023-02-15T00:53:07;98986.25;;;-0.11;91.23
62025;BME280;47978;49.118;12.146;2023-02-15T00:57:10;98986.59;;;-0.21;90.78
62025;BME280;47978;49.118;12.146;2023-02-15T01:01:12;98984.44;;;-0.32;91.59
62025;BME280;47978;49.118;12.146;2023-02-15T01:05:14;98986.97;;;-0.31;91.46
62025;BME280;47978;49.118;12.146;2023-02-15T01:09:15;98984.13;;;-0.16;91.02
62025;BME280;47978;49.118;12.146;2023-02-15T01:13:18;98984.47;;;0.09;89.70
62025;BME280;47978;49.118;12.146;2023-02-15T01:17:20;98976.66;;;-0.01;89.92
62025;BME280;47978;49.118;12.146;2023-02-15T01:21:21;98979.91;;;-0.25;90.98
62025;BME280;47978;49.118;12.146;2023-02-15T01:25:23;98972.84;;;-0.13;90.46
62025;BME280;47978;49.118;12.146;2023-02-15T01:29:26;98969.47;;;-0.21;91.41
62025;BME280;47978;49.118;12.146;2023-02-15T01:33:27;98972.00;;;-0.13;90.59
62025;BME280;47978;49.118;12.146;2023-02-15T01:37:29;98957.41;;;-0.40;91.47
62025;BME280;47978;49.118;12.146;2023-02-15T01:41:31;98951.31;;;-0.49;92.45
62025;BME280;47978;49.118;12.146;2023-02-15T01:45:34;98950.03;;;-0.53;92.40
62025;BME280;47978;49.118;12.146;2023-02-15T01:49:35;98943.91;;;-0.27;90.62
62025;BME280;47978;49.118;12.146;2023-02-15T01:53:37;98946.47;;;-0.19;91.15
62025;BME280;47978;49.118;12.146;2023-02-15T01:57:39;98943.75;;;-0.19;90.85
62025;BME280;47978;49.118;12.146;2023-02-15T02:01:43;98942.47;;;-0.23;90.84
62025;BME280;47978;49.118;12.146;2023-02-15T02:05:44;98939.56;;;-0.21;90.98
62025;BME280;47978;49.118;12.146;2023-02-15T02:09:46;98928.31;;;-0.47;91.69
62025;BME280;47978;49.118;12.146;2023-02-15T02:13:48;98921.63;;;-0.51;92.09
62025;BME280;47978;49.118;12.146;2023-02-15T02:17:56;98910.38;;;-0.41;91.94
62025;BME280;47978;49.118;12.146;2023-02-15T02:26:38;98913.88;;;-0.54;92.34
62025;BME280;47978;49.118;12.146;2023-02-15T02:35:13;98900.13;;;-0.46;90.88
62025;BME280;47978;49.118;12.146;2023-02-15T02:39:21;98908.63;;;-0.55;91.40
62025;BME280;47978;49.118;12.146;2023-02-15T02:43:25;98896.66;;;-0.68;92.18
62025;BME280;47978;49.118;12.146;2023-02-15T02:47:30;98895.69;;;-0.53;91.26
62025;BME280;47978;49.118;12.146;2023-02-15T02:51:35;98889.28;;;-0.46;90.77
62025;BME280;47978;49.118;12.146;2023-02-15T02:55:37;98884.25;;;-0.42;90.38
62025;BME280;47978;49.118;12.146;2023-02-15T02:59:41;98882.50;;;-0.56;91.49
62025;BME280;47978;49.118;12.146;2023-02-15T03:03:47;98895.16;;;-0.35;90.61
62025;BME280;47978;49.118;12.146;2023-02-15T03:07:52;98886.91;;;-0.55;91.02
62025;BME280;47978;49.118;12.146;2023-02-15T03:11:54;98885.94;;;-0.41;90.35
62025;BME280;47978;49.118;12.146;2023-02-15T03:15:56;98874.78;;;-0.53;90.54
62025;BME280;47978;49.118;12.146;2023-02-15T03:19:59;98873.13;;;-0.54;90.14
62025;BME280;47978;49.118;12.146;2023-02-15T03:24:05;98876.31;;;-0.43;90.70
62025;BME280;47978;49.118;12.146;2023-02-15T03:28:08;98883.94;;;-0.60;90.69
62025;BME280;47978;49.118;12.146;2023-02-15T03:32:11;98883.22;;;-0.76;92.07
62025;BME280;47978;49.118;12.146;2023-02-15T03:36:15;98879.75;;;-0.63;90.78
62025;BME280;47978;49.118;12.146;2023-02-15T03:40:22;98879.84;;;-0.84;91.88
62025;BME280;47978;49.118;12.146;2023-02-15T03:44:27;98871.72;;;-0.78;91.60
62025;BME280;47978;49.118;12.146;2023-02-15T03:48:29;98873.44;;;-0.70;91.51
62025;BME280;47978;49.118;12.146;2023-02-15T03:52:32;98873.53;;;-0.57;90.63
62025;BME280;47978;49.118;12.146;2023-02-15T03:56:37;98870.47;;;-0.75;91.23
62025;BME280;47978;49.118;12.146;2023-02-15T04:00:39;98864.06;;;-0.68;91.38
62025;BME280;47978;49.118;12.146;2023-02-15T04:04:46;98876.81;;;-0.68;91.17
62025;BME280;47978;49.118;12.146;2023-02-15T04:08:47;98877.75;;;-0.82;91.94
62025;BME280;47978;49.118;12.146;2023-02-15T04:12:50;98885.94;;;-0.76;90.63
62025;BME280;47978;49.118;12.146;2023-02-15T04:16:51;98880.38;;;-0.61;91.10
62025;BME280;47978;49.118;12.146;2023-02-15T04:20:53;98872.00;;;-0.66;91.07
62025;BME280;47978;49.118;12.146;2023-02-15T04:24:54;98873.00;;;-0.74;91.93
62025;BME280;47978;49.118;12.146;2023-02-15T04:28:57;98880.50;;;-0.76;92.53
62025;BME280;47978;49.118;12.146;2023-02-15T04:32:58;98885.63;;;-0.59;91.25
62025;BME280;47978;49.118;12.146;2023-02-15T04:37:00;98886.38;;;-0.72;91.48
62025;BME280;47978;49.118;12.146;2023-02-15T04:41:01;98888.50;;;-0.68;92.24
62025;BME280;47978;49.118;12.146;2023-02-15T04:45:04;98882.28;;;-0.61;91.85
62025;BME280;47978;49.118;12.146;2023-02-15T04:49:05;98878.38;;;-0.80;92.45
62025;BME280;47978;49.118;12.146;2023-02-15T04:53:07;98880.63;;;-0.56;91.99
62025;BME280;47978;49.118;12.146;2023-02-15T04:57:08;98885.47;;;-0.51;91.69
62025;BME280;47978;49.118;12.146;2023-02-15T05:01:11;98881.34;;;-0.75;92.89
62025;BME280;47978;49.118;12.146;2023-02-15T05:05:13;98883.06;;;-1.02;94.36
62025;BME280;47978;49.118;12.146;2023-02-15T05:09:14;98878.25;;;-1.00;94.67
62025;BME280;47978;49.118;12.146;2023-02-15T05:13:15;98878.19;;;-1.07;94.77
62025;BME280;47978;49.118;12.146;2023-02-15T05:17:18;98886.00;;;-0.97;94.86
62025;BME280;47978;49.118;12.146;2023-02-15T05:21:20;98886.75;;;-1.10;94.11
62025;BME280;47978;49.118;12.146;2023-02-15T05:25:21;98882.66;;;-0.99;94.56
62025;BME280;47978;49.118;12.146;2023-02-15T05:29:22;98874.94;;;-0.96;94.12
62025;BME280;47978;49.118;12.146;2023-02-15T05:33:25;98882.50;;;-0.91;94.04
62025;BME280;47978;49.118;12.146;2023-02-15T05:37:27;98872.22;;;-0.96;94.39
62025;BME280;47978;49.118;12.146;2023-02-15T05:41:28;98872.66;;;-0.92;94.75
62025;BME280;47978;49.118;12.146;2023-02-15T05:45:29;98875.13;;;-0.97;93.97
62025;BME280;47978;49.118;12.146;2023-02-15T05:49:32;98873.91;;;-0.95;94.11
62025;BME280;47978;49.118;12.146;2023-02-15T05:53:34;98877.91;;;-0.91;94.25
62025;BME280;47978;49.118;12.146;2023-02-15T05:57:36;98883.34;;;-0.91;93.98
62025;BME280;47978;49.118;12.146;2023-02-15T06:01:37;98886.25;;;-0.92;94.03
62025;BME280;47978;49.118;12.146;2023-02-15T06:05:40;98888.31;;;-0.94;94.36
62025;BME280;47978;49.118;12.146;2023-02-15T06:09:41;98892.16;;;-1.10;94.42
62025;BME280;47978;49.118;12.146;2023-02-15T06:13:42;98897.06;;;-0.99;94.81
62025;BME280;47978;49.118;12.146;2023-02-15T06:17:44;98905.00;;;-0.97;94.19
62025;BME280;47978;49.118;12.146;2023-02-15T06:21:47;98906.22;;;-1.00;93.76
62025;BME280;47978;49.118;12.146;2023-02-15T06:25:48;98912.69;;;-1.01;94.12
62025;BME280;47978;49.118;12.146;2023-02-15T06:29:49;98909.19;;;-0.95;94.26
62025;BME280;47978;49.118;12.146;2023-02-15T06:33:51;98911.03;;;-1.02;94.29
62025;BME280;47978;49.118;12.146;2023-02-15T06:37:53;98903.59;;;-1.15;95.05
62025;BME280;47978;49.118;12.146;2023-02-15T06:41:55;98904.22;;;-0.91;93.88
62025;BME280;47978;49.118;12.146;2023-02-15T06:45:56;98912.13;;;-0.96;94.17
62025;BME280;47978;49.118;12.146;2023-02-15T06:49:58;98908.09;;;-1.00;93.76
62025;BME280;47978;49.118;12.146;2023-02-15T06:54:00;98914.69;;;-0.88;93.63
62025;BME280;47978;49.118;12.146;2023-02-15T06:58:02;98913.13;;;-0.97;93.90
62025;BME280;47978;49.118;12.146;2023-02-15T07:02:03;98911.13;;;-1.17;94.67
62025;BME280;47978;49.118;12.146;2023-02-15T07:06:05;98907.88;;;-1.27;96.33
62025;BME280;47978;49.118;12.146;2023-02-15T07:10:08;98915.19;;;-1.27;96.82
62025;BME280;47978;49.118;12.146;2023-02-15T07:14:09;98910.22;;;-1.24;96.58
62025;BME280;47978;49.118;12.146;2023-02-15T07:18:11;98902.94;;;-0.95;96.69
62025;BME280;47978;49.118;12.146;2023-02-15T07:22:12;98903.91;;;-0.75;95.51
62025;BME280;47978;49.118;12.146;2023-02-15T07:26:15;98892.47;;;-0.70;94.54
62025;BME280;47978;49.118;12.146;2023-02-15T07:30:16;98894.59;;;-0.65;93.46
62025;BME280;47978;49.118;12.146;2023-02-15T07:34:18;98888.69;;;-0.69;93.87
62025;BME280;47978;49.118;12.146;2023-02-15T07:38:19;98881.47;;;-0.55;92.70
62025;BME280;47978;49.118;12.146;2023-02-15T07:42:22;98887.31;;;-0.58;93.84
62025;BME280;47978;49.118;12.146;2023-02-15T07:46:24;98872.91;;;-0.52;93.41
62025;BME280;47978;49.118;12.146;2023-02-15T07:50:25;98876.53;;;-0.45;93.01
62025;BME280;47978;49.118;12.146;2023-02-15T07:54:26;98871.38;;;-0.27;92.65
62025;BME280;47978;49.118;12.146;2023-02-15T07:58:29;98878.84;;;-0.42;92.07
62025;BME280;47978;49.118;12.146;2023-02-15T08:02:31;98877.44;;;-0.25;92.07
62025;BME280;47978;49.118;12.146;2023-02-15T08:06:33;98883.66;;;-0.37;92.49
62025;BME280;47978;49.118;12.146;2023-02-15T08:10:34;98886.75;;;-0.40;92.73
62025;BME280;47978;49.118;12.146;2023-02-15T08:14:37;98895.81;;;-0.27;91.93
62025;BME280;47978;49.118;12.146;2023-02-15T08:18:39;98889.91;;;0.05;90.56
62025;BME280;47978;49.118;12.146;2023-02-15T08:22:40;98886.59;;;0.16;90.31
62025;BME280;47978;49.118;12.146;2023-02-15T08:26:42;98873.63;;;0.25;88.99
62025;BME280;47978;49.118;12.146;2023-02-15T08:30:45;98884.03;;;0.08;90.85
62025;BME280;47978;49.118;12.146;2023-02-15T08:34:46;98877.72;;;-0.06;91.71
62025;BME280;47978;49.118;12.146;2023-02-15T08:38:48;98884.47;;;0.11;91.05
62025;BME280;47978;49.118;12.146;2023-02-15T08:42:49;98877.38;;;0.17;89.98
62025;BME280;47978;49.118;12.146;2023-02-15T08:46:52;98876.09;;;0.06;90.17
62025;BME280;47978;49.118;12.146;2023-02-15T08:50:53;98871.56;;;0.20;90.42
62025;BME280;47978;49.118;12.146;2023-02-15T08:54:55;98880.78;;;0.32;88.88
62025;BME280;47978;49.118;12.146;2023-02-15T08:58:56;98887.59;;;0.08;89.43
62025;BME280;47978;49.118;12.146;2023-02-15T09:02:59;98883.16;;;-0.06;90.04
62025;BME280;47978;49.118;12.146;2023-02-15T09:07:00;98895.66;;;-0.18;89.94
62025;BME280;47978;49.118;12.146;2023-02-15T09:11:06;98883.59;;;-0.03;90.16
62025;BME280;47978;49.118;12.146;2023-02-15T09:15:07;98884.16;;;-0.20;90.73
62025;BME280;47978;49.118;12.146;2023-02-15T09:19:10;98880.91;;;0.11;90.51
62025;BME280;47978;49.118;12.146;2023-02-15T09:23:12;98873.44;;;0.26;89.82
62025;BME280;47978;49.118;12.146;2023-02-15T09:27:27;98871.56;;;0.27;89.43
62025;BME280;47978;49.118;12.146;2023-02-15T09:31:29;98872.94;;;0.03;89.58
62025;BME280;47978;49.118;12.146;2023-02-15T09:35:32;98867.97;;;0.13;90.67
62025;BME280;47978;49.118;12.146;2023-02-15T09:39:33;98875.63;;;-0.11;90.55
62025;BME280;47978;49.118;12.146;2023-02-15T09:43:35;98879.16;;;-0.17;90.97
62025;BME280;47978;49.118;12.146;2023-02-15T09:47:49;98879.00;;;0.05;91.28
62025;BME280;47978;49.118;12.146;2023-02-15T09:56:13;98886.81;;;0.14;91.15
62025;BME280;47978;49.118;12.146;2023-02-15T10:00:18;98890.06;;;-0.10;91.73
62025;BME280;47978;49.118;12.146;2023-02-15T10:04:29;98891.78;;;0.04;90.98
62025;BME280;47978;49.118;12.146;2023-02-15T10:08:40;98891.63;;;0.19;90.74
62025;BME280;47978;49.118;12.146;2023-02-15T10:12:56;98888.28;;;0.24;90.60
62025;BME280;47978;49.118;12.146;2023-02-15T10:17:02;98888.25;;;0.17;90.79
62025;BME280;47978;49.118;12.146;2023-02-15T10:21:10;98891.78;;;-0.03;91.28
62025;BME280;47978;49.118;12.146;2023-02-15T10:25:17;98891.44;;;-0.28;92.76
62025;BME280;47978;49.118;12.146;2023-02-15T10:29:25;98876.25;;;-0.09;91.79
62025;BME280;47978;49.118;12.146;2023-02-15T10:33:34;98877.78;;;0.07;89.94
62025;BME280;47978;49.118;12.146;2023-02-15T10:37:46;98873.44;;;0.26;89.76
62025;BME280;47978;49.118;12.146;2023-02-15T10:41:51;98868.66;;;0.35;89.59
62025;BME280;47978;49.118;12.146;2023-02-15T10:45:58;98866.72;;;0.15;91.00
62025;BME280;47978;49.118;12.146;2023-02-15T10:50:06;98865.41;;;-0.02;90.66
62025;BME280;47978;49.118;12.146;2023-02-15T10:54:14;98872.97;;;0.09;91.41
62025;BME280;47978;49.118;12.146;2023-02-15T10:58:18;98871.69;;;-0.02;91.35
62025;BME280;47978;49.118;12.146;2023-02-15T11:02:25;98851.22;;;0.09;90.78
62025;BME280;47978;49.118;12.146;2023-02-15T11:06:31;98842.44;;;0.14;90.14
62025;BME280;47978;49.118;12.146;2023-02-15T11:10:35;98847.50;;;0.37;88.93
62025;BME280;47978;49.118;12.146;2023-02-15T11:14:38;98837.06;;;0.47;88.39
62025;BME280;47978;49.118;12.146;2023-02-15T11:18:44;98833.72;;;0.58;88.09
62025;BME280;47978;49.118;12.146;2023-02-15T11:22:48;98825.72;;;0.37;88.83
62025;BME280;47978;49.118;12.146;2023-02-15T11:26:51;98822.78;;;0.12;89.68
62025;BME280;47978;49.118;12.146;2023-02-15T11:30:55;98819.22;;;0.31;88.83
62025;BME280;47978;49.118;12.146;2023-02-15T11:35:00;98807.31;;;0.26;90.14
62025;BME280;47978;49.118;12.146;2023-02-15T11:39:03;98809.34;;;-0.10;91.03
62025;BME280;47978;49.118;12.146;2023-02-15T11:43:06;98812.63;;;-0.21;92.24
62025;BME280;47978;49.118;12.146;2023-02-15T11:47:12;98795.97;;;-0.11;93.13
62025;BME280;47978;49.118;12.146;2023-02-15T11:51:16;98799.97;;;0.13;91.70
62025;BME280;47978;49.118;12.146;2023-02-15T11:55:19;98783.03;;;0.24;91.31
62025;BME280;47978;49.118;12.146;2023-02-15T11:59:24;98785.34;;;0.47;90.06
62025;BME280;47978;49.118;12.146;2023-02-15T12:03:39;98773.00;;;0.78;88.57
62025;BME280;47978;49.118;12.146;2023-02-15T12:07:46;98774.03;;;0.70;88.36
62025;BME280;47978;49.118;12.146;2023-02-15T12:11:49;98764.41;;;0.67;88.02
62025;BME280;47978;49.118;12.146;2023-02-15T12:15:51;98769.22;;;0.79;88.08
62025;BME280;47978;49.118;12.146;2023-02-15T12:19:54;98769.44;;;0.64;88.13
62025;BME280;47978;49.118;12.146;2023-02-15T12:23:59;98765.47;;;0.47;88.84
62025;BME280;47978;49.118;12.146;2023-02-15T12:28:01;98760.84;;;0.34;89.04
62025;BME280;47978;49.118;12.146;2023-02-15T12:32:03;98760.66;;;0.15;90.05
62025;BME280;47978;49.118;12.146;2023-02-15T12:36:09;98750.41;;;0.17;90.57
62025;BME280;47978;49.118;12.146;2023-02-15T12:40:20;98748.28;;;-0.01;90.96
62025;BME280;47978;49.118;12.146;2023-02-15T12:44:22;98752.47;;;-0.11;92.07
62025;BME280;47978;49.118;12.146;2023-02-15T12:48:24;98744.53;;;0.07;91.50
62025;BME280;47978;49.118;12.146;2023-02-15T12:52:25;98750.41;;;0.24;90.52
62025;BME280;47978;49.118;12.146;2023-02-15T12:56:28;98749.97;;;0.27;90.44
62025;BME280;47978;49.118;12.146;2023-02-15T13:00:29;98745.19;;;0.49;90.55
62025;BME280;47978;49.118;12.146;2023-02-15T13:04:32;98731.38;;;0.37;89.66
62025;BME280;47978;49.118;12.146;2023-02-15T13:08:34;98733.84;;;0.45;90.03
62025;BME280;47978;49.118;12.146;2023-02-15T13:12:38;98728.44;;;0.52;89.03
62025;BME280;47978;49.118;12.146;2023-02-15T13:16:39;98725.28;;;0.69;88.60
62025;BME280;47978;49.118;12.146;2023-02-15T13:20:41;98715.47;;;0.41;89.34
62025;BME280;47978;49.118;12.146;2023-02-15T13:24:43;98706.66;;;0.19;90.62
62025;BME280;47978;49.118;12.146;2023-02-15T13:28:50;98699.56;;;0.05;91.43
62025;BME280;47978;49.118;12.146;2023-02-15T13:32:54;98708.72;;;-0.23;93.39
62025;BME280;47978;49.118;12.146;2023-02-15T13:36:57;98702.41;;;-0.43;94.73
62025;BME280;47978;49.118;12.146;2023-02-15T13:41:01;98705.84;;;-0.08;93.23
62025;BME280;47978;49.118;12.146;2023-02-15T13:45:13;98708.56;;;0.12;92.34
62025;BME280;47978;49.118;12.146;2023-02-15T13:49:18;98708.34;;;0.33;91.70
62025;BME280;47978;49.118;12.146;2023-02-15T13:53:25;98711.47;;;0.43;90.33
62025;BME280;47978;49.118;12.146;2023-02-15T13:57:38;98717.31;;;0.34;90.95
62025;BME280;47978;49.118;12.146;2023-02-15T14:01:48;98712.53;;;0.36;90.68
62025;BME280;47978;49.118;12.146;2023-02-15T14:06:05;98703.09;;;0.38;90.82
62025;BME280;47978;49.118;12.146;2023-02-15T14:10:18;98693.66;;;0.48;90.64
62025;BME280;47978;49.118;12.146;2023-02-15T14:14:25;98688.44;;;0.53;90.10
62025;BME280;47978;49.118;12.146;2023-02-15T14:18:34;98686.75;;;0.45;90.04
62025;BME280;47978;49.118;12.146;2023-02-15T14:22:38;98686.81;;;0.32;90.75
62025;BME280;47978;49.118;12.146;2023-02-15T14:26:44;98689.09;;;0.41;90.93
62025;BME280;47978;49.118;12.146;2023-02-15T14:30:48;98694.50;;;0.48;90.03
62025;BME280;47978;49.118;12.146;2023-02-15T14:34:52;98692.44;;;0.43;89.72
62025;BME280;47978;49.118;12.146;2023-02-15T14:38:59;98692.22;;;0.45;89.67
62025;BME280;47978;49.118;12.146;2023-02-15T14:43:04;98702.69;;;0.35;89.43
62025;BME280;47978;49.118;12.146;2023-02-15T14:47:08;98694.53;;;0.21;90.18
62025;BME280;47978;49.118;12.146;2023-02-15T14:55:43;98686.56;;;0.47;89.73
62025;BME280;47978;49.118;12.146;2023-02-15T14:59:45;98697.25;;;0.35;89.21
62025;BME280;47978;49.118;12.146;2023-02-15T15:03:48;98700.38;;;0.45;89.20
62025;BME280;47978;49.118;12.146;2023-02-15T15:07:52;98698.69;;;0.57;89.60
62025;BME280;47978;49.118;12.146;2023-02-15T15:11:56;98698.06;;;0.55;88.94
62025;BME280;47978;49.118;12.146;2023-02-15T15:16:24;98692.00;;;0.47;89.28
62025;BME280;47978;49.118;12.146;2023-02-15T15:24:55;98688.66;;;0.38;89.12
62025;BME280;47978;49.118;12.146;2023-02-15T15:29:01;98689.06;;;0.55;88.67
62025;BME280;47978;49.118;12.146;2023-02-15T15:33:06;98692.00;;;0.33;89.59
62025;BME280;47978;49.118;12.146;2023-02-15T15:37:34;98685.53;;;0.28;89.88
62025;BME280;47978;49.118;12.146;2023-02-15T15:41:42;98675.31;;;0.23;89.71
62025;BME280;47978;49.118;12.146;2023-02-15T15:45:52;98676.56;;;0.07;90.82
62025;BME280;47978;49.118;12.146;2023-02-15T15:49:58;98682.59;;;-0.17;91.44
62025;BME280;47978;49.118;12.146;2023-02-15T15:54:00;98678.22;;;0.02;90.96
62025;BME280;47978;49.118;12.146;2023-02-15T15:58:03;98680.47;;;-0.29;92.63
62025;BME280;47978;49.118;12.146;2023-02-15T16:02:11;98682.38;;;-0.29;92.46
62025;BME280;47978;49.118;12.146;2023-02-15T16:06:14;98677.38;;;-0.19;91.43
62025;BME280;47978;49.118;12.146;2023-02-15T16:10:20;98679.69;;;-0.09;92.26
62025;BME280;47978;49.118;12.146;2023-02-15T16:14:25;98679.25;;;-0.06;91.69
62025;BME280;47978;49.118;12.146;2023-02-15T16:18:28;98672.34;;;-0.15;92.46
62025;BME280;47978;49.118;12.146;2023-02-15T16:22:30;98673.84;;;-0.19;92.43
62025;BME280;47978;49.118;12.146;2023-02-15T16:31:03;98667.13;;;-0.37;92.34
62025;BME280;47978;49.118;12.146;2023-02-15T16:35:13;98671.72;;;-0.24;91.66
62025;BME280;47978;49.118;12.146;2023-02-15T16:39:18;98674.25;;;-0.22;92.00
62025;BME280;47978;49.118;12.146;2023-02-15T16:43:21;98681.94;;;-0.46;93.01
62025;BME280;47978;49.118;12.146;2023-02-15T16:47:25;98675.06;;;-0.22;92.28
62025;BME280;47978;49.118;12.146;2023-02-15T16:51:28;98688.03;;;-0.31;92.05
62025;BME280;47978;49.118;12.146;2023-02-15T16:55:30;98681.75;;;-0.18;92.09
62025;BME280;47978;49.118;12.146;2023-02-15T16:59:37;98686.56;;;-0.27;92.10
62025;BME280;47978;49.118;12.146;2023-02-15T17:03:41;98684.25;;;-0.36;93.12
62025;BME280;47978;49.118;12.146;2023-02-15T17:07:50;98690.34;;;-0.21;92.55
62025;BME280;47978;49.118;12.146;2023-02-15T17:11:52;98688.19;;;-0.52;93.48
62025;BME280;47978;49.118;12.146;2023-02-15T17:16:07;98690.94;;;-0.32;93.07
62025;BME280;47978;49.118;12.146;2023-02-15T17:20:11;98692.59;;;-0.38;93.08
62025;BME280;47978;49.118;12.146;2023-02-15T17:24:16;98699.31;;;-0.34;93.58
62025;BME280;47978;49.118;12.146;2023-02-15T17:28:20;98707.66;;;-0.42;93.53
62025;BME280;47978;49.118;12.146;2023-02-15T17:32:23;98710.56;;;-0.57;94.30
62025;BME280;47978;49.118;12.146;2023-02-15T17:36:25;98705.53;;;-0.53;94.57
62025;BME280;47978;49.118;12.146;2023-02-15T17:40:29;98714.28;;;-0.58;94.72
62025;BME280;47978;49.118;12.146;2023-02-15T17:44:31;98713.88;;;-0.55;95.00
62025;BME280;47978;49.118;12.146;2023-02-15T17:48:33;98713.03;;;-0.62;94.56
62025;BME280;47978;49.118;12.146;2023-02-15T17:52:35;98715.50;;;-0.74;94.48
62025;BME280;47978;49.118;12.146;2023-02-15T17:56:38;98711.56;;;-0.71;95.00
62025;BME280;47978;49.118;12.146;2023-02-15T18:00:41;98711.56;;;-0.64;94.20
62025;BME280;47978;49.118;12.146;2023-02-15T18:04:43;98716.75;;;-0.70;93.48
62025;BME280;47978;49.118;12.146;2023-02-15T18:08:44;98723.03;;;-0.69;94.08
62025;BME280;47978;49.118;12.146;2023-02-15T18:12:47;98721.41;;;-0.57;93.61
62025;BME280;47978;49.118;12.146;2023-02-15T18:16:48;98715.34;;;-0.59;93.15
62025;BME280;47978;49.118;12.146;2023-02-15T18:20:50;98715.94;;;-0.63;93.67
62025;BME280;47978;49.118;12.146;2023-02-15T18:24:51;98715.28;;;-0.72;94.32
62025;BME280;47978;49.118;12.146;2023-02-15T18:28:54;98720.56;;;-0.57;93.85
62025;BME280;47978;49.118;12.146;2023-02-15T18:32:55;98722.19;;;-0.70;93.74
62025;BME280;47978;49.118;12.146;2023-02-15T18:36:57;98724.13;;;-0.57;93.90
62025;BME280;47978;49.118;12.146;2023-02-15T18:41:00;98725.63;;;-0.48;93.53
62025;BME280;47978;49.118;12.146;2023-02-15T18:45:06;98725.97;;;-0.57;93.41
62025;BME280;47978;49.118;12.146;2023-02-15T18:49:14;98732.81;;;-0.75;94.23
62025;BME280;47978;49.118;12.146;2023-02-15T18:53:16;98729.03;;;-0.87;95.04
62025;BME280;47978;49.118;12.146;2023-02-15T18:57:19;98732.72;;;-0.95;95.30
62025;BME280;47978;49.118;12.146;2023-02-15T19:01:22;98734.63;;;-0.88;95.57
62025;BME280;47978;49.118;12.146;2023-02-15T19:05:23;98725.13;;;-0.71;95.54
62025;BME280;47978;49.118;12.146;2023-02-15T19:09:25;98726.38;;;-0.67;94.34
62025;BME280;47978;49.118;12.146;2023-02-15T19:13:26;98730.63;;;-0.51;94.09
62025;BME280;47978;49.118;12.146;2023-02-15T19:17:29;98733.78;;;-0.34;93.14
62025;BME280;47978;49.118;12.146;2023-02-15T19:21:30;98736.31;;;-0.39;92.14
62025;BME280;47978;49.118;12.146;2023-02-15T19:25:33;98739.44;;;-0.36;92.91
62025;BME280;47978;49.118;12.146;2023-02-15T19:29:35;98733.31;;;-0.58;93.57
62025;BME280;47978;49.118;12.146;2023-02-15T19:33:38;98719.28;;;-0.61;93.89
62025;BME280;47978;49.118;12.146;2023-02-15T19:37:39;98724.41;;;-0.93;94.28
62025;BME280;47978;49.118;12.146;2023-02-15T19:41:43;98731.38;;;-1.19;95.94
62025;BME280;47978;49.118;12.146;2023-02-15T19:45:45;98721.81;;;-1.08;96.03
62025;BME280;47978;49.118;12.146;2023-02-15T19:49:47;98717.84;;;-1.05;96.03
62025;BME280;47978;49.118;12.146;2023-02-15T19:53:49;98723.25;;;-1.12;95.48
62025;BME280;47978;49.118;12.146;2023-02-15T19:57:51;98723.66;;;-1.15;96.00
62025;BME280;47978;49.118;12.146;2023-02-15T20:01:52;98724.97;;;-1.04;95.16
62025;BME280;47978;49.118;12.146;2023-02-15T20:05:55;98726.59;;;-1.17;95.56
62025;BME280;47978;49.118;12.146;2023-02-15T20:09:57;98727.34;;;-1.29;95.91
62025;BME280;47978;49.118;12.146;2023-02-15T20:13:58;98721.78;;;-1.15;95.55
62025;BME280;47978;49.118;12.146;2023-02-15T20:18:00;98719.03;;;-1.21;95.66
62025;BME280;47978;49.118;12.146;2023-02-15T20:22:03;98717.16;;;-1.21;95.71
62025;BME280;47978;49.118;12.146;2023-02-15T20:26:09;98712.69;;;-1.35;96.04
62025;BME280;47978;49.118;12.146;2023-02-15T20:30:16;98712.53;;;-1.27;95.68
62025;BME280;47978;49.118;12.146;2023-02-15T20:34:18;98711.09;;;-1.23;95.62
62025;BME280;47978;49.118;12.146;2023-02-15T20:38:22;98706.03;;;-1.32;95.94
62025;BME280;47978;49.118;12.146;2023-02-15T20:42:24;98706.41;;;-1.42;96.06
62025;BME280;47978;49.118;12.146;2023-02-15T20:46:26;98705.75;;;-1.44;96.60
62025;BME280;47978;49.118;12.146;2023-02-15T20:50:28;98711.56;;;-1.47;96.90
62025;BME280;47978;49.118;12.146;2023-02-15T20:54:32;98704.38;;;-1.33;96.86
62025;BME280;47978;49.118;12.146;2023-02-15T20:58:34;98709.66;;;-1.19;96.68
62025;BME280;47978;49.118;12.146;2023-02-15T21:02:35;98712.38;;;-1.19;96.10
62025;BME280;47978;49.118;12.146;2023-02-15T21:06:37;98709.81;;;-1.27;96.70
62025;BME280;47978;49.118;12.146;2023-02-15T21:10:39;98711.28;;;-1.24;96.82
62025;BME280;47978;49.118;12.146;2023-02-15T21:14:41;98709.25;;;-1.16;96.06
62025;BME280;47978;49.118;12.146;2023-02-15T21:18:43;98695.47;;;-1.14;96.18
62025;BME280;47978;49.118;12.146;2023-02-15T21:22:44;98707.22;;;-1.07;96.17
62025;BME280;47978;49.118;12.146;2023-02-15T21:26:47;98701.13;;;-1.09;95.92
62025;BME280;47978;49.118;12.146;2023-02-15T21:30:49;98697.81;;;-1.04;95.35
62025;BME280;47978;49.118;12.146;2023-02-15T21:34:51;98697.19;;;-1.06;95.10
62025;BME280;47978;49.118;12.146;2023-02-15T21:38:52;98690.53;;;-0.97;94.62
62025;BME280;47978;49.118;12.146;2023-02-15T21:42:55;98692.56;;;-1.13;94.31